sensor_id;sensor_type;location;lat;lon;timestamp;temperature;humidity
24454;DHT22;12627;50.860;5.714;2022-12-18T00:01:00;-7.00;99.90
24454;DHT22;12627;50.860;5.714;2022-12-18T00:03:32;-7.00;99.90
24454;DHT22;12627;50.860;5.714;2022-12-18T00:05:59;-7.10;99.90
24454;DHT22;12627;50.860;5.714;2022-12-18T00:08:26;-7.10;99.90
24454;DHT22;12627;50.860;5.714;2022-12-18T00:10:55;-7.10;99.90
24454;DHT22;12627;50.860;5.714;2022-12-18T00:13:22;-7.10;99.90
24454;DHT22;12627;50.860;5.714;2022-12-18T00:15:49;-7.20;99.90
24454;DHT22;12627;50.860;5.714;2022-12-18T00:18:17;-7.30;99.90
24454;DHT22;12627;50.860;5.714;2022-12-18T00:20:44;-7.40;99.90
24454;DHT22;12627;50.860;5.714;2022-12-18T00:23:11;-7.50;99.90
24454;DHT22;12627;50.860;5.714;2022-12-18T00:25:39;-7.60;99.90
24454;DHT22;12627;50.860;5.714;2022-12-18T00:28:08;-7.60;99.90
24454;DHT22;12627;50.860;5.714;2022-12-18T00:30:35;-7.60;99.90
24454;DHT22;12627;50.860;5.714;2022-12-18T00:33:02;-7.60;99.90
24454;DHT22;12627;50.860;5.714;2022-12-18T00:35:30;-7.60;99.90
24454;DHT22;12627;50.860;5.714;2022-12-18T00:37:58;-7.50;99.90
24454;DHT22;12627;50.860;5.714;2022-12-18T00:40:25;-7.50;99.90
24454;DHT22;12627;50.860;5.714;2022-12-18T00:42:52;-7.60;99.90
24454;DHT22;12627;50.860;5.714;2022-12-18T00:45:23;-7.70;99.90
24454;DHT22;12627;50.860;5.714;2022-12-18T00:47:50;-7.70;99.90
24454;DHT22;12627;50.860;5.714;2022-12-18T00:50:18;-7.80;99.90
24454;DHT22;12627;50.860;5.714;2022-12-18T00:52:45;-7.90;99.90
24454;DHT22;12627;50.860;5.714;2022-12-18T00:55:12;-8.00;99.90
24454;DHT22;12627;50.860;5.714;2022-12-18T00:57:40;-7.90;99.90
24454;DHT22;12627;50.860;5.714;2022-12-18T01:00:10;-8.00;99.90
24454;DHT22;12627;50.860;5.714;2022-12-18T01:02:39;-7.90;99.90
24454;DHT22;12627;50.860;5.714;2022-12-18T01:05:07;-7.80;99.90
24454;DHT22;12627;50.860;5.714;2022-12-18T01:07:35;-7.80;99.90
24454;DHT22;12627;50.860;5.714;2022-12-18T01:10:02;-7.80;99.90
24454;DHT22;12627;50.860;5.714;2022-12-18T01:12:30;-7.90;99.90
24454;DHT22;12627;50.860;5.714;2022-12-18T01:14:57;-7.90;99.90
24454;DHT22;12627;50.860;5.714;2022-12-18T01:17:25;-8.00;99.90
24454;DHT22;12627;50.860;5.714;2022-12-18T01:19:53;-7.90;99.90
24454;DHT22;12627;50.860;5.714;2022-12-18T01:22:20;-8.10;99.90
24454;DHT22;12627;50.860;5.714;2022-12-18T01:24:47;-8.20;99.90
24454;DHT22;12627;50.860;5.714;2022-12-18T01:27:15;-8.20;99.90
24454;DHT22;12627;50.860;5.714;2022-12-18T01:29:42;-8.20;99.90
24454;DHT22;12627;50.860;5.714;2022-12-18T01:32:09;-8.20;99.90
24454;DHT22;12627;50.860;5.714;2022-12-18T01:34:36;-8.10;99.90
24454;DHT22;12627;50.860;5.714;2022-12-18T01:37:05;-8.10;99.90
24454;DHT22;12627;50.860;5.714;2022-12-18T01:39:33;-8.10;99.90
24454;DHT22;12627;50.860;5.714;2022-12-18T01:42:02;-8.10;99.90
24454;DHT22;12627;50.860;5.714;2022-12-18T01:44:55;-8.10;99.90
24454;DHT22;12627;50.860;5.714;2022-12-18T01:47:26;-8.10;99.90
24454;DHT22;12627;50.860;5.714;2022-12-18T01:49:55;-8.20;99.90
24454;DHT22;12627;50.860;5.714;2022-12-18T01:52:25;-8.20;99.90
24454;DHT22;12627;50.860;5.714;2022-12-18T01:54:53;-8.20;99.90
24454;DHT22;12627;50.860;5.714;2022-12-18T01:57:20;-8.20;99.90
24454;DHT22;12627;50.860;5.714;2022-12-18T01:59:52;-8.30;99.90
24454;DHT22;12627;50.860;5.714;2022-12-18T02:02:20;-8.20;99.90
24454;DHT22;12627;50.860;5.714;2022-12-18T02:04:48;-8.20;99.90
24454;DHT22;12627;50.860;5.714;2022-12-18T02:07:20;-8.10;99.90
24454;DHT22;12627;50.860;5.714;2022-12-18T02:09:57;-8.00;99.90
24454;DHT22;12627;50.860;5.714;2022-12-18T02:12:29;-8.00;99.90
24454;DHT22;12627;50.860;5.714;2022-12-18T02:15:02;-8.00;99.90
24454;DHT22;12627;50.860;5.714;2022-12-18T02:17:37;-7.90;99.90
24454;DHT22;12627;50.860;5.714;2022-12-18T02:20:13;-7.80;99.90
24454;DHT22;12627;50.860;5.714;2022-12-18T02:22:51;-7.90;99.90
24454;DHT22;12627;50.860;5.714;2022-12-18T02:25:33;-7.80;99.90
24454;DHT22;12627;50.860;5.714;2022-12-18T02:28:09;-7.60;99.90
24454;DHT22;12627;50.860;5.714;2022-12-18T02:30:39;-7.60;99.90
24454;DHT22;12627;50.860;5.714;2022-12-18T02:33:08;-7.60;99.90
24454;DHT22;12627;50.860;5.714;2022-12-18T02:35:37;-7.50;99.90
24454;DHT22;12627;50.860;5.714;2022-12-18T02:38:06;-7.50;99.90
24454;DHT22;12627;50.860;5.714;2022-12-18T02:40:35;-7.60;99.90
24454;DHT22;12627;50.860;5.714;2022-12-18T02:43:08;-7.50;99.90
24454;DHT22;12627;50.860;5.714;2022-12-18T02:45:37;-7.50;99.90
24454;DHT22;12627;50.860;5.714;2022-12-18T02:48:12;-7.60;99.90
24454;DHT22;12627;50.860;5.714;2022-12-18T02:50:44;-7.50;99.90
24454;DHT22;12627;50.860;5.714;2022-12-18T02:53:17;-7.40;99.90
24454;DHT22;12627;50.860;5.714;2022-12-18T02:55:55;-7.50;99.90
24454;DHT22;12627;50.860;5.714;2022-12-18T02:58:30;-7.50;99.90
24454;DHT22;12627;50.860;5.714;2022-12-18T03:01:02;-7.70;99.90
24454;DHT22;12627;50.860;5.714;2022-12-18T03:03:36;-7.60;99.90
24454;DHT22;12627;50.860;5.714;2022-12-18T03:06:08;-7.60;99.90
24454;DHT22;12627;50.860;5.714;2022-12-18T03:08:39;-7.50;99.90
24454;DHT22;12627;50.860;5.714;2022-12-18T03:11:09;-7.70;99.90
24454;DHT22;12627;50.860;5.714;2022-12-18T03:13:42;-7.70;99.90
24454;DHT22;12627;50.860;5.714;2022-12-18T03:16:12;-7.80;99.90
24454;DHT22;12627;50.860;5.714;2022-12-18T03:18:46;-7.80;99.90
24454;DHT22;12627;50.860;5.714;2022-12-18T03:21:18;-7.80;99.90
24454;DHT22;12627;50.860;5.714;2022-12-18T03:23:49;-7.80;99.90
24454;DHT22;12627;50.860;5.714;2022-12-18T03:26:20;-7.80;99.90
24454;DHT22;12627;50.860;5.714;2022-12-18T03:28:54;-7.80;99.90
24454;DHT22;12627;50.860;5.714;2022-12-18T03:31:24;-7.80;99.90
24454;DHT22;12627;50.860;5.714;2022-12-18T03:33:54;-7.70;99.90
24454;DHT22;12627;50.860;5.714;2022-12-18T03:36:22;-7.60;99.90
24454;DHT22;12627;50.860;5.714;2022-12-18T03:38:50;-7.60;99.90
24454;DHT22;12627;50.860;5.714;2022-12-18T03:41:22;-6.70;99.90
24454;DHT22;12627;50.860;5.714;2022-12-18T03:44:00;-7.70;99.90
24454;DHT22;12627;50.860;5.714;2022-12-18T03:46:37;-7.60;99.90
24454;DHT22;12627;50.860;5.714;2022-12-18T03:49:11;-7.70;99.90
24454;DHT22;12627;50.860;5.714;2022-12-18T03:51:47;-7.60;99.90
24454;DHT22;12627;50.860;5.714;2022-12-18T03:54:16;-7.70;99.90
24454;DHT22;12627;50.860;5.714;2022-12-18T03:56:46;-7.70;99.90
24454;DHT22;12627;50.860;5.714;2022-12-18T03:59:17;-7.70;99.90
24454;DHT22;12627;50.860;5.714;2022-12-18T04:01:48;-7.70;99.90
24454;DHT22;12627;50.860;5.714;2022-12-18T04:04:17;-7.70;99.90
24454;DHT22;12627;50.860;5.714;2022-12-18T04:06:47;-7.70;99.90
24454;DHT22;12627;50.860;5.714;2022-12-18T04:09:14;-7.70;99.90
24454;DHT22;12627;50.860;5.714;2022-12-18T04:11:42;-7.70;99.90
24454;DHT22;12627;50.860;5.714;2022-12-18T04:14:10;-7.70;99.90
24454;DHT22;12627;50.860;5.714;2022-12-18T04:16:38;-7.70;99.90
24454;DHT22;12627;50.860;5.714;2022-12-18T04:19:06;-7.80;99.90
24454;DHT22;12627;50.860;5.714;2022-12-18T04:21:33;-7.70;99.90
24454;DHT22;12627;50.860;5.714;2022-12-18T04:24:00;-7.70;99.90
24454;DHT22;12627;50.860;5.714;2022-12-18T04:26:27;-7.70;99.90
24454;DHT22;12627;50.860;5.714;2022-12-18T04:28:54;-7.70;99.90
24454;DHT22;12627;50.860;5.714;2022-12-18T04:31:22;-7.70;99.90
24454;DHT22;12627;50.860;5.714;2022-12-18T04:33:50;-7.70;99.90
24454;DHT22;12627;50.860;5.714;2022-12-18T04:36:17;-7.70;99.90
24454;DHT22;12627;50.860;5.714;2022-12-18T04:38:45;-7.80;99.90
24454;DHT22;12627;50.860;5.714;2022-12-18T04:41:13;-7.70;99.90
24454;DHT22;12627;50.860;5.714;2022-12-18T04:43:40;-7.70;99.90
24454;DHT22;12627;50.860;5.714;2022-12-18T04:46:08;-7.70;99.90
24454;DHT22;12627;50.860;5.714;2022-12-18T04:48:37;-7.80;99.90
24454;DHT22;12627;50.860;5.714;2022-12-18T04:51:06;-7.80;99.90
24454;DHT22;12627;50.860;5.714;2022-12-18T04:53:33;-7.90;99.90
24454;DHT22;12627;50.860;5.714;2022-12-18T04:56:05;-7.20;99.90
24454;DHT22;12627;50.860;5.714;2022-12-18T04:58:32;-7.80;99.90
24454;DHT22;12627;50.860;5.714;2022-12-18T05:01:00;-7.90;99.90
24454;DHT22;12627;50.860;5.714;2022-12-18T05:03:27;-7.90;99.90
24454;DHT22;12627;50.860;5.714;2022-12-18T05:05:54;-8.00;99.90
24454;DHT22;12627;50.860;5.714;2022-12-18T05:08:23;-8.00;99.90
24454;DHT22;12627;50.860;5.714;2022-12-18T05:10:58;-8.10;99.90
24454;DHT22;12627;50.860;5.714;2022-12-18T05:13:25;-8.10;99.90
24454;DHT22;12627;50.860;5.714;2022-12-18T05:15:53;-8.20;99.90
24454;DHT22;12627;50.860;5.714;2022-12-18T05:18:20;-8.20;99.90
24454;DHT22;12627;50.860;5.714;2022-12-18T05:20:47;-8.20;99.90
24454;DHT22;12627;50.860;5.714;2022-12-18T05:23:15;-8.20;99.90
24454;DHT22;12627;50.860;5.714;2022-12-18T05:25:47;-8.10;99.90
24454;DHT22;12627;50.860;5.714;2022-12-18T05:28:17;-8.00;99.90
24454;DHT22;12627;50.860;5.714;2022-12-18T05:30:48;-8.00;99.90
24454;DHT22;12627;50.860;5.714;2022-12-18T05:33:15;-8.10;99.90
24454;DHT22;12627;50.860;5.714;2022-12-18T05:35:43;-7.90;99.90
24454;DHT22;12627;50.860;5.714;2022-12-18T05:38:10;-7.80;99.90
24454;DHT22;12627;50.860;5.714;2022-12-18T05:40:40;-7.80;99.90
24454;DHT22;12627;50.860;5.714;2022-12-18T05:43:09;-7.80;99.90
24454;DHT22;12627;50.860;5.714;2022-12-18T05:45:37;-7.70;99.90
24454;DHT22;12627;50.860;5.714;2022-12-18T05:48:05;-7.70;99.90
24454;DHT22;12627;50.860;5.714;2022-12-18T05:50:34;-7.70;99.90
24454;DHT22;12627;50.860;5.714;2022-12-18T05:53:02;-7.70;99.90
24454;DHT22;12627;50.860;5.714;2022-12-18T05:55:29;-7.80;99.90
24454;DHT22;12627;50.860;5.714;2022-12-18T05:57:56;-7.90;99.90
24454;DHT22;12627;50.860;5.714;2022-12-18T06:00:25;-7.80;99.90
24454;DHT22;12627;50.860;5.714;2022-12-18T06:02:52;-7.90;99.90
24454;DHT22;12627;50.860;5.714;2022-12-18T06:05:19;-8.00;99.90
24454;DHT22;12627;50.860;5.714;2022-12-18T06:07:47;-8.10;99.90
24454;DHT22;12627;50.860;5.714;2022-12-18T06:10:14;-8.10;99.90
24454;DHT22;12627;50.860;5.714;2022-12-18T06:12:41;-8.00;99.90
24454;DHT22;12627;50.860;5.714;2022-12-18T06:15:09;-8.00;99.90
24454;DHT22;12627;50.860;5.714;2022-12-18T06:17:37;-8.00;99.90
24454;DHT22;12627;50.860;5.714;2022-12-18T06:20:05;-8.00;99.90
24454;DHT22;12627;50.860;5.714;2022-12-18T06:22:33;-8.20;99.90
24454;DHT22;12627;50.860;5.714;2022-12-18T06:25:00;-8.30;99.90
24454;DHT22;12627;50.860;5.714;2022-12-18T06:27:27;-8.30;99.90
24454;DHT22;12627;50.860;5.714;2022-12-18T06:29:55;-8.40;99.90
24454;DHT22;12627;50.860;5.714;2022-12-18T06:32:22;-8.40;99.90
24454;DHT22;12627;50.860;5.714;2022-12-18T06:34:51;-8.50;99.90
24454;DHT22;12627;50.860;5.714;2022-12-18T06:37:19;-8.60;99.90
24454;DHT22;12627;50.860;5.714;2022-12-18T06:39:46;-8.50;99.90
24454;DHT22;12627;50.860;5.714;2022-12-18T06:42:13;-8.70;99.90
24454;DHT22;12627;50.860;5.714;2022-12-18T06:44:40;-8.80;99.90
24454;DHT22;12627;50.860;5.714;2022-12-18T06:47:08;-8.80;99.90
24454;DHT22;12627;50.860;5.714;2022-12-18T06:49:35;-8.70;99.90
24454;DHT22;12627;50.860;5.714;2022-12-18T06:52:03;-8.70;99.90
24454;DHT22;12627;50.860;5.714;2022-12-18T06:54:30;-8.70;99.90
24454;DHT22;12627;50.860;5.714;2022-12-18T06:56:58;-8.70;99.90
24454;DHT22;12627;50.860;5.714;2022-12-18T06:59:25;-8.80;99.90
24454;DHT22;12627;50.860;5.714;2022-12-18T07:01:52;-8.90;99.90
24454;DHT22;12627;50.860;5.714;2022-12-18T07:04:20;-8.70;99.90
24454;DHT22;12627;50.860;5.714;2022-12-18T07:06:47;-8.60;99.90
24454;DHT22;12627;50.860;5.714;2022-12-18T07:09:16;-8.50;99.90
24454;DHT22;12627;50.860;5.714;2022-12-18T07:11:43;-8.50;99.90
24454;DHT22;12627;50.860;5.714;2022-12-18T07:14:10;-8.40;99.90
24454;DHT22;12627;50.860;5.714;2022-12-18T07:16:37;-8.30;99.90
24454;DHT22;12627;50.860;5.714;2022-12-18T07:19:04;-8.30;99.90
24454;DHT22;12627;50.860;5.714;2022-12-18T07:21:31;-8.30;99.90
24454;DHT22;12627;50.860;5.714;2022-12-18T07:23:58;-8.40;99.90
24454;DHT22;12627;50.860;5.714;2022-12-18T07:26:27;-8.40;99.90
24454;DHT22;12627;50.860;5.714;2022-12-18T07:28:55;-8.40;99.90
24454;DHT22;12627;50.860;5.714;2022-12-18T07:31:23;-8.50;99.90
24454;DHT22;12627;50.860;5.714;2022-12-18T07:33:51;-8.40;99.90
24454;DHT22;12627;50.860;5.714;2022-12-18T07:36:18;-8.50;99.90
24454;DHT22;12627;50.860;5.714;2022-12-18T07:38:49;-8.50;99.90
24454;DHT22;12627;50.860;5.714;2022-12-18T07:41:17;-8.50;99.90
24454;DHT22;12627;50.860;5.714;2022-12-18T07:43:46;-8.40;99.90
24454;DHT22;12627;50.860;5.714;2022-12-18T07:46:14;-8.30;99.90
24454;DHT22;12627;50.860;5.714;2022-12-18T07:48:42;-8.10;99.90
24454;DHT22;12627;50.860;5.714;2022-12-18T07:51:12;-6.90;99.90
24454;DHT22;12627;50.860;5.714;2022-12-18T07:53:40;-7.80;99.90
24454;DHT22;12627;50.860;5.714;2022-12-18T07:56:09;-7.80;99.90
24454;DHT22;12627;50.860;5.714;2022-12-18T07:58:37;-7.70;99.90
24454;DHT22;12627;50.860;5.714;2022-12-18T08:01:07;-7.60;99.90
24454;DHT22;12627;50.860;5.714;2022-12-18T08:03:35;-7.50;99.90
24454;DHT22;12627;50.860;5.714;2022-12-18T08:06:04;-7.40;99.90
24454;DHT22;12627;50.860;5.714;2022-12-18T08:08:33;-7.20;99.90
24454;DHT22;12627;50.860;5.714;2022-12-18T08:11:00;-7.00;99.90
24454;DHT22;12627;50.860;5.714;2022-12-18T08:13:28;-6.80;99.90
24454;DHT22;12627;50.860;5.714;2022-12-18T08:15:56;-6.60;99.90
24454;DHT22;12627;50.860;5.714;2022-12-18T08:18:25;-6.40;99.90
24454;DHT22;12627;50.860;5.714;2022-12-18T08:20:53;-6.20;99.90
24454;DHT22;12627;50.860;5.714;2022-12-18T08:23:20;-6.20;99.90
24454;DHT22;12627;50.860;5.714;2022-12-18T08:25:48;-6.10;99.90
24454;DHT22;12627;50.860;5.714;2022-12-18T08:28:16;-5.80;99.90
24454;DHT22;12627;50.860;5.714;2022-12-18T08:30:44;-5.60;99.90
24454;DHT22;12627;50.860;5.714;2022-12-18T08:33:11;-5.20;99.90
24454;DHT22;12627;50.860;5.714;2022-12-18T08:35:39;-4.80;99.90
24454;DHT22;12627;50.860;5.714;2022-12-18T08:38:07;-5.00;99.90
24454;DHT22;12627;50.860;5.714;2022-12-18T08:40:34;-4.50;99.90
24454;DHT22;12627;50.860;5.714;2022-12-18T08:43:01;-4.30;99.90
24454;DHT22;12627;50.860;5.714;2022-12-18T08:45:57;-4.00;99.90
24454;DHT22;12627;50.860;5.714;2022-12-18T08:48:25;-3.70;99.90
24454;DHT22;12627;50.860;5.714;2022-12-18T08:50:58;-3.70;99.90
24454;DHT22;12627;50.860;5.714;2022-12-18T08:53:25;-3.70;99.90
24454;DHT22;12627;50.860;5.714;2022-12-18T08:55:53;-3.70;99.90
24454;DHT22;12627;50.860;5.714;2022-12-18T08:58:20;-3.40;99.90
24454;DHT22;12627;50.860;5.714;2022-12-18T09:00:47;-3.30;99.90
24454;DHT22;12627;50.860;5.714;2022-12-18T09:03:17;-2.90;99.90
24454;DHT22;12627;50.860;5.714;2022-12-18T09:05:46;-2.60;99.90
24454;DHT22;12627;50.860;5.714;2022-12-18T09:08:14;-2.10;99.90
24454;DHT22;12627;50.860;5.714;2022-12-18T09:10:42;-1.30;99.90
24454;DHT22;12627;50.860;5.714;2022-12-18T09:13:10;-1.40;99.90
24454;DHT22;12627;50.860;5.714;2022-12-18T09:15:40;-1.80;99.90
24454;DHT22;12627;50.860;5.714;2022-12-18T09:18:08;-1.90;99.90
24454;DHT22;12627;50.860;5.714;2022-12-18T09:20:35;-2.10;99.90
24454;DHT22;12627;50.860;5.714;2022-12-18T09:23:03;-2.40;99.90
24454;DHT22;12627;50.860;5.714;2022-12-18T09:25:32;-2.60;99.90
24454;DHT22;12627;50.860;5.714;2022-12-18T09:28:02;-2.80;99.90
24454;DHT22;12627;50.860;5.714;2022-12-18T09:30:29;-2.80;99.90
24454;DHT22;12627;50.860;5.714;2022-12-18T09:32:59;-2.70;99.90
24454;DHT22;12627;50.860;5.714;2022-12-18T09:35:26;-2.80;99.90
24454;DHT22;12627;50.860;5.714;2022-12-18T09:37:54;-3.00;99.90
24454;DHT22;12627;50.860;5.714;2022-12-18T09:40:24;-2.80;99.90
24454;DHT22;12627;50.860;5.714;2022-12-18T09:42:57;-2.60;99.90
24454;DHT22;12627;50.860;5.714;2022-12-18T09:45:25;-2.50;99.90
24454;DHT22;12627;50.860;5.714;2022-12-18T09:47:54;-2.30;99.90
24454;DHT22;12627;50.860;5.714;2022-12-18T09:50:27;-2.00;99.90
24454;DHT22;12627;50.860;5.714;2022-12-18T09:52:58;-1.80;99.90
24454;DHT22;12627;50.860;5.714;2022-12-18T09:55:30;-2.00;99.90
24454;DHT22;12627;50.860;5.714;2022-12-18T09:58:04;-1.90;99.90
24454;DHT22;12627;50.860;5.714;2022-12-18T10:00:33;-1.50;99.90
24454;DHT22;12627;50.860;5.714;2022-12-18T10:03:08;-1.40;99.90
24454;DHT22;12627;50.860;5.714;2022-12-18T10:05:39;-1.50;99.90
24454;DHT22;12627;50.860;5.714;2022-12-18T10:08:13;-1.40;99.90
24454;DHT22;12627;50.860;5.714;2022-12-18T10:10:48;-1.30;99.90
24454;DHT22;12627;50.860;5.714;2022-12-18T10:13:24;-1.30;99.90
24454;DHT22;12627;50.860;5.714;2022-12-18T10:16:01;-1.80;99.90
24454;DHT22;12627;50.860;5.714;2022-12-18T10:18:45;-1.80;99.90
24454;DHT22;12627;50.860;5.714;2022-12-18T10:21:20;-1.80;99.90
24454;DHT22;12627;50.860;5.714;2022-12-18T10:23:54;-1.40;99.90
24454;DHT22;12627;50.860;5.714;2022-12-18T10:26:26;-1.40;99.90
24454;DHT22;12627;50.860;5.714;2022-12-18T10:28:57;-1.70;99.90
24454;DHT22;12627;50.860;5.714;2022-12-18T10:31:25;-1.60;99.90
24454;DHT22;12627;50.860;5.714;2022-12-18T10:33:54;-1.40;99.90
24454;DHT22;12627;50.860;5.714;2022-12-18T10:36:22;-1.40;99.90
24454;DHT22;12627;50.860;5.714;2022-12-18T10:38:50;-1.80;99.90
24454;DHT22;12627;50.860;5.714;2022-12-18T10:41:25;-1.60;99.90
24454;DHT22;12627;50.860;5.714;2022-12-18T10:44:21;-1.50;99.90
24454;DHT22;12627;50.860;5.714;2022-12-18T10:46:49;-1.80;99.90
24454;DHT22;12627;50.860;5.714;2022-12-18T10:49:24;-1.70;99.90
24454;DHT22;12627;50.860;5.714;2022-12-18T10:52:05;-1.50;99.90
24454;DHT22;12627;50.860;5.714;2022-12-18T10:54:34;-1.50;99.90
24454;DHT22;12627;50.860;5.714;2022-12-18T10:57:16;-1.40;99.90
24454;DHT22;12627;50.860;5.714;2022-12-18T10:59:52;-1.40;99.90
24454;DHT22;12627;50.860;5.714;2022-12-18T11:02:33;-1.40;99.90
24454;DHT22;12627;50.860;5.714;2022-12-18T11:05:01;-1.40;99.90
24454;DHT22;12627;50.860;5.714;2022-12-18T11:07:48;-1.30;99.90
24454;DHT22;12627;50.860;5.714;2022-12-18T11:10:17;-1.10;99.90
24454;DHT22;12627;50.860;5.714;2022-12-18T11:12:45;-1.30;99.90
24454;DHT22;12627;50.860;5.714;2022-12-18T11:15:20;-1.30;99.90
24454;DHT22;12627;50.860;5.714;2022-12-18T11:17:48;-1.40;99.90
24454;DHT22;12627;50.860;5.714;2022-12-18T11:20:28;-1.40;99.90
24454;DHT22;12627;50.860;5.714;2022-12-18T11:22:59;-1.40;99.90
24454;DHT22;12627;50.860;5.714;2022-12-18T11:25:27;-1.30;99.90
24454;DHT22;12627;50.860;5.714;2022-12-18T11:27:59;-1.20;99.90
24454;DHT22;12627;50.860;5.714;2022-12-18T11:30:30;-1.10;99.90
24454;DHT22;12627;50.860;5.714;2022-12-18T11:33:02;-1.00;99.90
24454;DHT22;12627;50.860;5.714;2022-12-18T11:35:39;-0.90;99.90
24454;DHT22;12627;50.860;5.714;2022-12-18T11:38:18;-0.90;99.90
24454;DHT22;12627;50.860;5.714;2022-12-18T11:40:54;-0.80;99.90
24454;DHT22;12627;50.860;5.714;2022-12-18T11:43:27;-0.70;99.90
24454;DHT22;12627;50.860;5.714;2022-12-18T11:46:00;-0.70;99.90
24454;DHT22;12627;50.860;5.714;2022-12-18T11:48:32;-0.70;99.90
24454;DHT22;12627;50.860;5.714;2022-12-18T11:51:03;-0.70;99.90
24454;DHT22;12627;50.860;5.714;2022-12-18T11:53:32;-0.70;99.90
24454;DHT22;12627;50.860;5.714;2022-12-18T11:56:17;-0.80;99.90
24454;DHT22;12627;50.860;5.714;2022-12-18T11:58:49;-0.70;99.90
24454;DHT22;12627;50.860;5.714;2022-12-18T12:01:30;-0.70;99.90
24454;DHT22;12627;50.860;5.714;2022-12-18T12:04:27;-0.60;99.90
24454;DHT22;12627;50.860;5.714;2022-12-18T12:07:03;-0.60;99.90
24454;DHT22;12627;50.860;5.714;2022-12-18T12:09:43;-0.40;99.90
24454;DHT22;12627;50.860;5.714;2022-12-18T12:12:27;-0.20;99.90
24454;DHT22;12627;50.860;5.714;2022-12-18T12:15:02;-0.10;99.90
24454;DHT22;12627;50.860;5.714;2022-12-18T12:17:40;-0.10;99.90
24454;DHT22;12627;50.860;5.714;2022-12-18T12:20:15;-0.10;99.90
24454;DHT22;12627;50.860;5.714;2022-12-18T12:22:50;-0.10;99.90
24454;DHT22;12627;50.860;5.714;2022-12-18T12:25:29;0.00;99.90
24454;DHT22;12627;50.860;5.714;2022-12-18T12:28:11;0.10;99.90
24454;DHT22;12627;50.860;5.714;2022-12-18T12:30:46;0.10;99.90
24454;DHT22;12627;50.860;5.714;2022-12-18T12:33:27;0.20;99.90
24454;DHT22;12627;50.860;5.714;2022-12-18T12:36:05;0.30;99.90
24454;DHT22;12627;50.860;5.714;2022-12-18T12:38:35;0.30;99.90
24454;DHT22;12627;50.860;5.714;2022-12-18T12:41:06;0.30;99.90
24454;DHT22;12627;50.860;5.714;2022-12-18T12:43:57;0.30;99.90
24454;DHT22;12627;50.860;5.714;2022-12-18T12:46:25;0.40;99.90
24454;DHT22;12627;50.860;5.714;2022-12-18T12:48:56;0.50;99.90
24454;DHT22;12627;50.860;5.714;2022-12-18T12:51:26;0.50;99.90
24454;DHT22;12627;50.860;5.714;2022-12-18T12:53:57;0.50;99.90
24454;DHT22;12627;50.860;5.714;2022-12-18T12:56:27;0.60;99.90
24454;DHT22;12627;50.860;5.714;2022-12-18T12:59:04;0.70;99.90
24454;DHT22;12627;50.860;5.714;2022-12-18T13:01:39;0.70;99.90
24454;DHT22;12627;50.860;5.714;2022-12-18T13:04:17;0.80;99.90
24454;DHT22;12627;50.860;5.714;2022-12-18T13:06:53;0.90;99.90
24454;DHT22;12627;50.860;5.714;2022-12-18T13:09:21;1.00;99.90
24454;DHT22;12627;50.860;5.714;2022-12-18T13:11:48;1.00;99.90
24454;DHT22;12627;50.860;5.714;2022-12-18T13:14:35;1.00;99.90
24454;DHT22;12627;50.860;5.714;2022-12-18T13:17:28;1.00;99.90
24454;DHT22;12627;50.860;5.714;2022-12-18T13:20:12;1.00;99.90
24454;DHT22;12627;50.860;5.714;2022-12-18T13:22:43;1.10;99.90
24454;DHT22;12627;50.860;5.714;2022-12-18T13:25:38;1.10;99.90
24454;DHT22;12627;50.860;5.714;2022-12-18T13:28:08;1.20;99.90
24454;DHT22;12627;50.860;5.714;2022-12-18T13:30:48;1.20;99.90
24454;DHT22;12627;50.860;5.714;2022-12-18T13:33:41;1.30;99.90
24454;DHT22;12627;50.860;5.714;2022-12-18T13:36:29;1.30;99.90
24454;DHT22;12627;50.860;5.714;2022-12-18T13:39:22;1.40;99.90
24454;DHT22;12627;50.860;5.714;2022-12-18T13:41:51;1.50;99.90
24454;DHT22;12627;50.860;5.714;2022-12-18T13:44:31;1.50;99.90
24454;DHT22;12627;50.860;5.714;2022-12-18T13:47:00;1.50;99.90
24454;DHT22;12627;50.860;5.714;2022-12-18T13:49:36;1.40;99.90
24454;DHT22;12627;50.860;5.714;2022-12-18T13:52:16;1.30;99.90
24454;DHT22;12627;50.860;5.714;2022-12-18T13:54:47;1.40;99.90
24454;DHT22;12627;50.860;5.714;2022-12-18T13:57:26;1.20;99.90
24454;DHT22;12627;50.860;5.714;2022-12-18T13:59:54;1.20;99.90
24454;DHT22;12627;50.860;5.714;2022-12-18T14:02:23;1.10;99.90
24454;DHT22;12627;50.860;5.714;2022-12-18T14:04:51;1.10;99.90
24454;DHT22;12627;50.860;5.714;2022-12-18T14:07:22;0.90;99.90
24454;DHT22;12627;50.860;5.714;2022-12-18T14:09:52;0.80;99.90
24454;DHT22;12627;50.860;5.714;2022-12-18T14:12:23;0.60;99.90
24454;DHT22;12627;50.860;5.714;2022-12-18T14:15:20;0.60;99.90
24454;DHT22;12627;50.860;5.714;2022-12-18T14:17:50;0.50;99.90
24454;DHT22;12627;50.860;5.714;2022-12-18T14:20:17;0.40;99.90
24454;DHT22;12627;50.860;5.714;2022-12-18T14:22:48;0.40;99.90
24454;DHT22;12627;50.860;5.714;2022-12-18T14:25:18;0.30;99.90
24454;DHT22;12627;50.860;5.714;2022-12-18T14:27:47;0.30;99.90
24454;DHT22;12627;50.860;5.714;2022-12-18T14:30:27;0.30;99.90
24454;DHT22;12627;50.860;5.714;2022-12-18T14:33:05;0.30;99.90
24454;DHT22;12627;50.860;5.714;2022-12-18T14:35:37;0.30;99.90
24454;DHT22;12627;50.860;5.714;2022-12-18T14:38:22;0.30;99.90
24454;DHT22;12627;50.860;5.714;2022-12-18T14:40:58;0.30;99.90
24454;DHT22;12627;50.860;5.714;2022-12-18T14:43:26;0.30;99.90
24454;DHT22;12627;50.860;5.714;2022-12-18T14:45:54;0.30;99.90
24454;DHT22;12627;50.860;5.714;2022-12-18T14:48:30;0.30;99.90
24454;DHT22;12627;50.860;5.714;2022-12-18T14:51:02;0.30;99.90
24454;DHT22;12627;50.860;5.714;2022-12-18T14:53:38;0.30;99.90
24454;DHT22;12627;50.860;5.714;2022-12-18T14:56:18;0.30;99.90
24454;DHT22;12627;50.860;5.714;2022-12-18T14:58:52;0.20;99.90
24454;DHT22;12627;50.860;5.714;2022-12-18T15:01:25;0.20;99.90
24454;DHT22;12627;50.860;5.714;2022-12-18T15:03:54;0.20;99.90
24454;DHT22;12627;50.860;5.714;2022-12-18T15:06:32;0.20;99.90
24454;DHT22;12627;50.860;5.714;2022-12-18T15:09:04;0.10;99.90
24454;DHT22;12627;50.860;5.714;2022-12-18T15:11:35;0.10;99.90
